Time;durP1;ratioP1;P1;durP2;ratioP2;P2;SDS_P1;SDS_P2;PMS_P1;PMS_P2;Temp;Humidity;BMP_temperature;BMP_pressure;BME280_temperature;BME280_humidity;BME280_pressure;Samples;Min_cycle;Max_cycle;Signal;HPM_P1;HPM_P2
2021/12/09 00:02:20;;;;;;;8.10;7.30;;;23.00;58.00;;;;;;5079950;28;20247;-55
2021/12/09 00:04:53;;;;;;;9.00;7.75;;;23.00;58.60;;;;;;5078414;28;20198;-46
2021/12/09 00:07:24;;;;;;;9.80;7.63;;;23.00;57.90;;;;;;5079853;28;20218;-50
2021/12/09 00:09:56;;;;;;;8.65;7.28;;;23.00;57.90;;;;;;5084904;28;20281;-49
2021/12/09 00:12:27;;;;;;;9.38;7.93;;;23.10;57.90;;;;;;5079823;28;20575;-49
2021/12/09 00:15:00;;;;;;;9.77;7.70;;;23.10;57.90;;;;;;5079442;28;20228;-40
2021/12/09 00:17:30;;;;;;;8.38;7.57;;;23.10;57.80;;;;;;5079453;28;20232;-49
2021/12/09 00:20:05;;;;;;;9.05;7.78;;;23.10;57.70;;;;;;5084455;28;20285;-41
2021/12/09 00:22:35;;;;;;;8.35;7.55;;;23.10;57.70;;;;;;5079629;28;20280;-42
2021/12/09 00:25:08;;;;;;;7.63;6.82;;;23.10;58.30;;;;;;5076239;28;20281;-54
2021/12/09 00:27:39;;;;;;;9.35;7.47;;;23.10;57.70;;;;;;5079950;28;20226;-44
2021/12/09 00:30:11;;;;;;;7.28;6.68;;;23.10;57.60;;;;;;5083274;28;20713;-51
2021/12/09 00:32:42;;;;;;;8.07;7.28;;;23.20;57.50;;;;;;5079152;28;20190;-47
2021/12/09 00:35:16;;;;;;;8.50;6.47;;;23.20;57.50;;;;;;5079811;28;20230;-53
2021/12/09 00:37:56;;;;;;;7.18;6.50;;;23.20;57.40;;;;;;5077350;28;20309;-46
2021/12/09 00:40:29;;;;;;;9.43;7.32;;;23.20;57.40;;;;;;5080541;28;20199;-55
2021/12/09 00:42:59;;;;;;;7.28;6.68;;;23.20;57.30;;;;;;5080278;28;20281;-43
2021/12/09 00:45:30;;;;;;;8.02;7.28;;;23.20;57.30;;;;;;5075526;28;20277;-50
2021/12/09 00:48:01;;;;;;;7.50;6.70;;;23.30;57.30;;;;;;5077158;28;20310;-43
2021/12/09 00:50:31;;;;;;;8.45;6.82;;;23.30;57.20;;;;;;5082723;28;20272;-48
2021/12/09 00:53:02;;;;;;;7.63;6.93;;;23.30;57.20;;;;;;5081084;28;20282;-42
2021/12/09 00:55:34;;;;;;;7.15;6.50;;;23.30;57.20;;;;;;5078444;28;20281;-49
2021/12/09 00:58:05;;;;;;;10.48;7.63;;;23.30;57.20;;;;;;5078778;28;20309;-43
2021/12/09 01:00:35;;;;;;;7.80;7.10;;;23.30;57.20;;;;;;5081674;28;20285;-44
2021/12/09 01:03:06;;;;;;;7.30;6.60;;;23.40;57.20;;;;;;5080263;28;20627;-40
2021/12/09 01:05:36;;;;;;;7.90;7.10;;;23.40;57.20;;;;;;5077619;28;20633;-53
2021/12/09 01:08:08;;;;;;;8.27;7.50;;;23.40;57.20;;;;;;5078239;28;20304;-54
2021/12/09 01:10:40;;;;;;;7.05;6.40;;;23.40;57.10;;;;;;5082751;28;20624;-53
2021/12/09 01:13:12;;;;;;;7.60;6.68;;;23.40;57.10;;;;;;5080906;28;20281;-44
2021/12/09 01:15:42;;;;;;;7.72;6.80;;;23.40;57.10;;;;;;5078274;28;20224;-48
2021/12/09 01:18:13;;;;;;;6.97;6.35;;;23.40;57.10;;;;;;5079254;28;20309;-41
2021/12/09 01:20:44;;;;;;;8.88;6.93;;;23.50;57.10;;;;;;5084103;28;21493;-47
2021/12/09 01:23:14;;;;;;;6.95;6.28;;;23.50;57.10;;;;;;5083538;28;20289;-41
2021/12/09 01:25:48;;;;;;;8.23;6.80;;;23.50;57.10;;;;;;5079016;28;20236;-40
2021/12/09 01:28:24;;;;;;;7.88;6.53;;;23.50;57.00;;;;;;5081005;28;20254;-40
2021/12/09 01:31:01;;;;;;;7.07;6.40;;;23.60;57.00;;;;;;5086805;28;20200;-44
2021/12/09 01:33:32;;;;;;;6.85;6.25;;;23.60;57.00;;;;;;5084518;28;20190;-42
2021/12/09 01:36:10;;;;;;;7.65;6.90;;;23.60;57.00;;;;;;5079290;28;20329;-48
2021/12/09 01:38:41;;;;;;;7.40;6.63;;;23.60;56.90;;;;;;5079580;28;20211;-42
2021/12/09 01:41:13;;;;;;;7.78;7.00;;;23.70;56.90;;;;;;5087213;28;20233;-41
2021/12/09 01:43:44;;;;;;;6.97;6.28;;;23.70;56.90;;;;;;5084226;28;20193;-47
2021/12/09 01:46:15;;;;;;;7.32;6.63;;;23.70;56.90;;;;;;5081973;28;20195;-53
2021/12/09 01:48:47;;;;;;;7.15;6.47;;;23.70;56.90;;;;;;5080241;28;20753;-50
2021/12/09 01:51:18;;;;;;;7.95;7.18;;;23.70;56.90;;;;;;5084233;28;20278;-42
2021/12/09 01:53:50;;;;;;;6.43;5.80;;;23.70;56.80;;;;;;5086225;28;20190;-43
2021/12/09 01:56:25;;;;;;;6.97;6.38;;;23.70;56.70;;;;;;5080100;28;20265;-39
2021/12/09 01:58:58;;;;;;;7.22;6.53;;;23.80;57.00;;;;;;5081648;28;20284;-47
2021/12/09 02:01:29;;;;;;;7.70;7.03;;;23.80;57.30;;;;;;5085424;28;20288;-43
2021/12/09 02:04:01;;;;;;;7.63;6.93;;;23.80;57.30;;;;;;5085432;28;20281;-42
2021/12/09 02:06:33;;;;;;;7.07;6.47;;;23.80;57.30;;;;;;5080154;28;20210;-43
2021/12/09 02:09:04;;;;;;;6.68;6.03;;;23.90;57.30;;;;;;5081208;28;20234;-54
2021/12/09 02:11:37;;;;;;;7.22;6.63;;;23.90;57.10;;;;;;5084469;28;20640;-46
2021/12/09 02:14:08;;;;;;;7.10;6.50;;;23.90;57.00;;;;;;5086930;28;20269;-42
2021/12/09 02:16:39;;;;;;;6.95;6.35;;;24.00;57.00;;;;;;5080098;28;20245;-40
2021/12/09 02:19:12;;;;;;;7.15;6.45;;;24.00;56.90;;;;;;5080329;28;20283;-43
2021/12/09 02:21:45;;;;;;;7.50;6.80;;;24.00;56.80;;;;;;5086139;28;20227;-43
2021/12/09 02:24:18;;;;;;;7.10;6.40;;;24.00;56.80;;;;;;5084719;28;20273;-47
2021/12/09 02:26:50;;;;;;;7.50;6.80;;;24.10;56.70;;;;;;5079340;28;20218;-43
2021/12/09 02:29:21;;;;;;;6.22;5.63;;;24.10;56.60;;;;;;5080905;28;20199;-46
2021/12/09 02:31:56;;;;;;;7.22;6.53;;;24.10;56.60;;;;;;5084501;28;20286;-45
2021/12/09 02:34:26;;;;;;;7.35;6.60;;;24.20;56.50;;;;;;5080280;28;20209;-44
2021/12/09 02:36:59;;;;;;;6.85;6.15;;;24.20;56.50;;;;;;5079189;28;20309;-40
2021/12/09 02:39:29;;;;;;;6.78;5.95;;;24.20;56.40;;;;;;5080014;28;20290;-54
2021/12/09 02:42:00;;;;;;;7.10;6.40;;;24.20;56.40;;;;;;5082949;28;20286;-42
2021/12/09 02:44:31;;;;;;;6.60;5.70;;;24.20;56.40;;;;;;5084194;28;20637;-51
2021/12/09 02:47:01;;;;;;;6.35;5.85;;;24.20;56.30;;;;;;5079749;28;20264;-56
2021/12/09 02:49:34;;;;;;;7.40;6.05;;;24.30;56.30;;;;;;5079124;28;20703;-58
2021/12/09 02:52:08;;;;;;;6.18;5.47;;;24.30;56.20;;;;;;5084248;28;20289;-47
2021/12/09 02:54:38;;;;;;;5.55;5.05;;;24.30;56.10;;;;;;5084209;28;20277;-47
2021/12/09 02:57:11;;;;;;;6.28;5.65;;;24.30;56.10;;;;;;5078071;28;20305;-45
2021/12/09 02:59:41;;;;;;;5.53;5.13;;;24.40;56.10;;;;;;5079971;28;20708;-49
2021/12/09 03:02:13;;;;;;;6.32;5.63;;;24.40;56.00;;;;;;5082990;28;20839;-41
2021/12/09 03:04:48;;;;;;;5.32;4.82;;;24.40;55.90;;;;;;5084439;28;20324;-40
2021/12/09 03:07:24;;;;;;;5.88;5.32;;;24.50;56.00;;;;;;5078364;28;20229;-41
2021/12/09 03:09:56;;;;;;;5.85;5.00;;;24.50;55.90;;;;;;5076299;28;20212;-40
2021/12/09 03:12:29;;;;;;;6.22;5.63;;;24.50;55.80;;;;;;5083682;28;20206;-46
2021/12/09 03:14:59;;;;;;;4.95;4.55;;;24.50;55.80;;;;;;5085210;28;20645;-40
2021/12/09 03:17:30;;;;;;;5.18;4.78;;;24.60;55.80;;;;;;5079959;28;20756;-42
2021/12/09 03:20:01;;;;;;;5.82;5.18;;;24.60;55.70;;;;;;5081555;28;20277;-41
2021/12/09 03:22:33;;;;;;;5.65;5.07;;;24.60;55.60;;;;;;5081718;28;20281;-47
2021/12/09 03:25:05;;;;;;;5.53;5.10;;;24.70;55.60;;;;;;5084197;28;20264;-52
2021/12/09 03:27:35;;;;;;;6.80;5.18;;;24.70;55.50;;;;;;5080630;28;20216;-51
2021/12/09 03:30:09;;;;;;;5.43;5.03;;;24.70;55.50;;;;;;5079426;28;20704;-42
2021/12/09 03:32:39;;;;;;;5.20;4.80;;;24.70;55.50;;;;;;5080260;28;20624;-46
2021/12/09 03:35:12;;;;;;;5.22;4.82;;;24.70;55.50;;;;;;5080730;28;20273;-48
2021/12/09 03:37:45;;;;;;;5.30;4.90;;;24.70;55.40;;;;;;5076254;28;20795;-43
2021/12/09 03:40:17;;;;;;;4.88;4.47;;;24.80;55.50;;;;;;5077558;28;20275;-42
2021/12/09 03:42:48;;;;;;;5.25;4.78;;;24.90;55.40;;;;;;5080681;28;20286;-46
2021/12/09 03:45:18;;;;;;;5.20;4.80;;;24.90;55.40;;;;;;5082447;28;20273;-54
2021/12/09 03:47:49;;;;;;;4.80;4.30;;;24.90;55.30;;;;;;5078363;28;20296;-50
2021/12/09 03:50:19;;;;;;;5.00;4.60;;;24.90;55.10;;;;;;5079955;28;20309;-49
2021/12/09 03:52:52;;;;;;;4.88;4.10;;;25.00;55.20;;;;;;5082471;28;20964;-53
2021/12/09 03:55:22;;;;;;;4.68;4.25;;;25.00;55.20;;;;;;5082719;28;20226;-46
2021/12/09 03:57:53;;;;;;;5.70;4.10;;;25.00;55.90;;;;;;5080531;28;20261;-47
2021/12/09 04:00:27;;;;;;;4.53;4.00;;;25.10;55.80;;;;;;5077426;28;20285;-55
2021/12/09 04:02:57;;;;;;;4.45;4.05;;;25.10;55.90;;;;;;5081687;28;20247;-57
2021/12/09 04:05:28;;;;;;;3.97;3.67;;;25.10;55.80;;;;;;5082207;28;20273;-58
2021/12/09 04:08:00;;;;;;;4.20;3.83;;;25.10;55.50;;;;;;5079779;28;20400;-58
2021/12/09 04:10:31;;;;;;;5.20;4.18;;;25.20;55.40;;;;;;5078442;28;20289;-46
2021/12/09 04:13:03;;;;;;;4.97;4.10;;;25.20;55.30;;;;;;5081369;28;20199;-54
2021/12/09 04:15:33;;;;;;;3.85;3.53;;;25.20;55.30;;;;;;5083712;28;20240;-46
2021/12/09 04:18:04;;;;;;;4.20;3.78;;;25.20;55.20;;;;;;5080241;28;20257;-49
2021/12/09 04:20:35;;;;;;;4.45;4.05;;;25.30;55.20;;;;;;5078647;28;20237;-48
2021/12/09 04:23:08;;;;;;;4.55;3.85;;;25.30;55.30;;;;;;5082878;28;20678;-46
2021/12/09 04:25:40;;;;;;;4.47;4.07;;;25.30;55.20;;;;;;5084249;28;20277;-51
2021/12/09 04:28:10;;;;;;;3.90;3.50;;;25.30;55.10;;;;;;5080319;28;20292;-52
2021/12/09 04:30:41;;;;;;;3.95;3.55;;;25.30;55.10;;;;;;5075440;28;20277;-54
2021/12/09 04:33:12;;;;;;;4.28;3.92;;;25.40;55.00;;;;;;5082529;28;20198;-48
2021/12/09 04:35:42;;;;;;;4.20;3.83;;;25.40;55.00;;;;;;5083172;28;20221;-48
2021/12/09 04:38:15;;;;;;;5.07;3.63;;;25.40;54.80;;;;;;5074281;28;20312;-50
2021/12/09 04:40:45;;;;;;;4.28;3.88;;;25.40;54.70;;;;;;5078299;28;20861;-49
2021/12/09 04:43:16;;;;;;;4.00;3.55;;;25.40;54.70;;;;;;5080448;28;20290;-44
2021/12/09 04:45:47;;;;;;;3.78;3.47;;;25.50;54.70;;;;;;5084717;28;20277;-50
2021/12/09 04:48:18;;;;;;;4.50;3.67;;;25.40;54.60;;;;;;5079309;28;20304;-44
2021/12/09 04:50:48;;;;;;;4.00;3.50;;;25.50;54.60;;;;;;5076233;28;20223;-44
2021/12/09 04:53:21;;;;;;;6.07;3.63;;;25.50;54.50;;;;;;5080980;28;20238;-46
2021/12/09 04:55:51;;;;;;;4.07;3.78;;;25.50;54.40;;;;;;5083332;28;20214;-46
2021/12/09 04:58:23;;;;;;;3.97;3.45;;;25.50;54.40;;;;;;5078242;28;20348;-45
2021/12/09 05:00:54;;;;;;;4.35;3.22;;;25.50;54.30;;;;;;5078439;28;20283;-42
2021/12/09 05:03:25;;;;;;;3.40;3.10;;;25.50;54.90;;;;;;5086248;28;20237;-42
2021/12/09 05:05:58;;;;;;;3.67;3.33;;;25.50;54.30;;;;;;5085517;28;20293;-39
2021/12/09 05:08:32;;;;;;;4.05;3.15;;;25.50;54.30;;;;;;5083280;28;20308;-41
2021/12/09 05:11:07;;;;;;;3.22;2.90;;;25.50;54.30;;;;;;5084516;28;20205;-41
2021/12/09 05:13:40;;;;;;;3.10;2.80;;;25.50;54.30;;;;;;5085050;28;20198;-53
2021/12/09 05:16:12;;;;;;;3.63;2.80;;;25.50;54.20;;;;;;5087142;28;20190;-51
2021/12/09 05:18:44;;;;;;;3.47;3.17;;;25.50;54.20;;;;;;5085138;28;20756;-57
2021/12/09 05:21:15;;;;;;;4.45;2.92;;;25.50;54.20;;;;;;5081166;28;20224;-44
2021/12/09 05:23:47;;;;;;;3.03;2.72;;;25.50;54.10;;;;;;5085407;28;20229;-39
2021/12/09 05:26:19;;;;;;;3.38;3.08;;;25.50;54.10;;;;;;5086809;28;20615;-47
2021/12/09 05:28:55;;;;;;;4.20;3.20;;;25.50;54.10;;;;;;5081474;28;20222;-54
2021/12/09 05:34:12;;;;;;;3.90;3.15;;;25.50;54.00;;;;;;5081315;28;20271;-55
2021/12/09 05:36:43;;;;;;;3.40;3.03;;;25.50;54.00;;;;;;5085727;28;20717;-55
2021/12/09 05:39:17;;;;;;;4.43;2.78;;;25.40;53.90;;;;;;5084564;28;20218;-41
2021/12/09 05:41:48;;;;;;;3.38;2.92;;;25.40;53.90;;;;;;5081070;28;20205;-57
2021/12/09 05:44:19;;;;;;;3.47;2.83;;;25.40;54.00;;;;;;5079582;28;20630;-55
2021/12/09 05:46:50;;;;;;;3.50;3.20;;;25.40;54.10;;;;;;5087745;28;20309;-48
2021/12/09 05:49:21;;;;;;;2.80;2.55;;;25.40;54.00;;;;;;5083729;28;20873;-51
2021/12/09 05:51:53;;;;;;;3.13;2.90;;;25.40;54.00;;;;;;5082983;28;20289;-55
2021/12/09 05:54:25;;;;;;;3.10;2.90;;;25.40;54.00;;;;;;5082485;28;20934;-48
2021/12/09 05:56:56;;;;;;;3.28;2.75;;;25.30;53.90;;;;;;5085340;28;20301;-47
2021/12/09 05:59:26;;;;;;;2.90;2.55;;;25.30;54.00;;;;;;5084581;28;20218;-52
2021/12/09 06:01:57;;;;;;;3.30;2.53;;;25.30;54.00;;;;;;5082020;28;20663;-55
2021/12/09 06:04:28;;;;;;;2.95;2.60;;;25.30;54.60;;;;;;5082514;28;20292;-53
2021/12/09 06:06:58;;;;;;;2.92;2.50;;;25.30;54.10;;;;;;5086731;28;20305;-59
2021/12/09 06:09:30;;;;;;;3.95;3.30;;;25.30;54.10;;;;;;5083077;28;20277;-41
2021/12/09 06:12:01;;;;;;;3.63;2.58;;;25.30;54.10;;;;;;5080260;28;20681;-49
2021/12/09 06:14:31;;;;;;;2.67;2.45;;;25.30;54.10;;;;;;5079570;28;20230;-59
2021/12/09 06:17:02;;;;;;;2.63;2.42;;;25.30;54.10;;;;;;5087018;28;20254;-49
2021/12/09 06:19:33;;;;;;;4.35;2.40;;;25.30;54.20;;;;;;5082537;28;20226;-58
2021/12/09 06:22:03;;;;;;;3.47;2.60;;;25.30;54.20;;;;;;5079722;28;20277;-51
2021/12/09 06:24:35;;;;;;;3.03;2.72;;;25.30;54.20;;;;;;5082161;28;20602;-47
2021/12/09 06:27:08;;;;;;;2.75;2.53;;;25.20;54.10;;;;;;5086932;28;20296;-55
2021/12/09 06:29:39;;;;;;;2.67;2.47;;;25.20;54.10;;;;;;5069749;28;20198;-58
2021/12/09 06:32:11;;;;;;;3.13;2.90;;;25.20;54.10;;;;;;5079709;28;20285;-55
2021/12/09 06:34:41;;;;;;;3.25;2.80;;;25.20;54.10;;;;;;5081340;28;20666;-58
2021/12/09 06:37:12;;;;;;;4.05;3.00;;;25.20;54.10;;;;;;5083129;28;20297;-52
2021/12/09 06:39:44;;;;;;;2.50;2.25;;;25.20;54.00;;;;;;5079826;28;20661;-59
2021/12/09 06:42:16;;;;;;;3.28;2.67;;;25.20;54.10;;;;;;5079543;28;20242;-57
2021/12/09 06:44:47;;;;;;;3.15;2.85;;;25.10;54.00;;;;;;5079175;28;20290;-55
2021/12/09 06:47:18;;;;;;;3.17;2.50;;;25.10;54.10;;;;;;5086905;28;20297;-55
2021/12/09 06:49:48;;;;;;;2.92;2.63;;;25.10;54.10;;;;;;5079713;28;20320;-53
2021/12/09 06:52:19;;;;;;;2.47;2.28;;;25.10;54.10;;;;;;5079913;28;20237;-57
2021/12/09 06:54:51;;;;;;;2.53;2.33;;;25.10;54.10;;;;;;5083429;28;20281;-52
2021/12/09 06:57:22;;;;;;;2.65;2.45;;;25.10;54.20;;;;;;5086558;28;20290;-48
2021/12/09 06:59:53;;;;;;;2.80;2.50;;;25.10;54.20;;;;;;5068784;28;20317;-55
2021/12/09 07:02:23;;;;;;;3.13;2.63;;;25.10;54.20;;;;;;5079064;28;20281;-59
2021/12/09 07:04:54;;;;;;;2.70;2.50;;;25.10;54.20;;;;;;5082760;28;20282;-57
2021/12/09 07:07:24;;;;;;;2.67;2.47;;;25.10;54.20;;;;;;5085818;28;20821;-55
2021/12/09 07:10:06;;;;;;;3.45;2.78;;;25.00;54.20;;;;;;5079234;28;20269;-51
2021/12/09 07:12:37;;;;;;;3.38;2.55;;;25.00;54.10;;;;;;5079416;28;20201;-46
2021/12/09 07:15:09;;;;;;;3.78;2.55;;;25.10;54.20;;;;;;5081915;28;20198;-58
2021/12/09 07:17:43;;;;;;;2.67;2.47;;;25.00;54.10;;;;;;5087130;28;20272;-46
2021/12/09 07:20:15;;;;;;;2.67;2.47;;;25.00;54.10;;;;;;5079799;28;20251;-53
2021/12/09 07:22:48;;;;;;;2.45;2.25;;;25.00;54.10;;;;;;5080719;28;20262;-45
2021/12/09 07:25:21;;;;;;;2.67;2.22;;;25.00;54.10;;;;;;5079498;28;20546;-56
2021/12/09 07:27:52;;;;;;;3.25;2.40;;;24.90;54.10;;;;;;5083193;28;20218;-43
2021/12/09 07:30:24;;;;;;;2.45;2.25;;;24.90;54.10;;;;;;5080677;28;20244;-51
2021/12/09 07:32:55;;;;;;;2.30;2.10;;;24.90;54.10;;;;;;5070880;28;20869;-56
2021/12/09 07:35:30;;;;;;;2.65;2.30;;;24.90;54.20;;;;;;5079029;28;21281;-50
2021/12/09 07:38:01;;;;;;;2.30;2.10;;;24.90;54.20;;;;;;5083743;28;20227;-55
2021/12/09 07:40:35;;;;;;;2.95;2.40;;;24.90;54.20;;;;;;5083093;28;20772;-55
2021/12/09 07:43:06;;;;;;;2.30;2.10;;;24.80;54.20;;;;;;5079319;28;20262;-54
2021/12/09 07:45:37;;;;;;;2.42;2.22;;;24.80;54.30;;;;;;5080757;28;20202;-53
2021/12/09 07:48:08;;;;;;;2.65;2.25;;;24.80;54.30;;;;;;5082274;28;20608;-50
2021/12/09 07:50:39;;;;;;;3.15;2.53;;;24.80;54.30;;;;;;5083688;28;20186;-54
2021/12/09 07:53:10;;;;;;;3.05;2.40;;;24.80;54.30;;;;;;5079793;28;20603;-48
2021/12/09 07:55:42;;;;;;;2.45;2.25;;;24.70;54.30;;;;;;5080380;28;20201;-54
2021/12/09 07:58:13;;;;;;;2.60;2.10;;;24.70;54.30;;;;;;5082967;28;20268;-56
2021/12/09 08:00:44;;;;;;;3.78;2.35;;;24.70;54.30;;;;;;5082787;28;20194;-51
2021/12/09 08:03:15;;;;;;;3.22;2.42;;;24.70;54.30;;;;;;5068566;28;20274;-53
2021/12/09 08:05:48;;;;;;;3.65;2.55;;;24.70;54.30;;;;;;5079856;28;20195;-51
2021/12/09 08:08:18;;;;;;;4.47;2.20;;;24.70;54.30;;;;;;5079428;28;20281;-46
2021/12/09 08:10:51;;;;;;;5.15;2.13;;;24.60;54.30;;;;;;5093373;22;20279;-57
2021/12/09 08:13:23;;;;;;;2.85;2.33;;;24.60;54.40;;;;;;5102101;28;20202;-57
2021/12/09 08:15:54;;;;;;;5.57;2.60;;;24.60;54.40;;;;;;5104654;28;20233;-60
2021/12/09 08:18:31;;;;;;;5.68;2.42;;;24.60;54.40;;;;;;5103765;28;20226;-56
2021/12/09 08:21:04;;;;;;;4.50;2.22;;;24.50;54.40;;;;;;5103656;28;20197;-57
2021/12/09 08:23:34;;;;;;;3.55;2.25;;;24.50;54.50;;;;;;5097016;28;20760;-54
2021/12/09 08:26:07;;;;;;;5.80;2.42;;;24.50;54.50;;;;;;5093661;28;20210;-60
2021/12/09 08:28:37;;;;;;;4.07;2.30;;;24.50;54.60;;;;;;5102109;28;20282;-57
2021/12/09 08:31:08;;;;;;;4.00;2.00;;;24.50;54.60;;;;;;5102332;28;20251;-58
2021/12/09 08:33:39;;;;;;;4.75;2.45;;;24.40;54.60;;;;;;5096375;28;20242;-57
2021/12/09 08:36:09;;;;;;;4.68;2.65;;;24.40;54.60;;;;;;5097736;28;20676;-53
2021/12/09 08:38:40;;;;;;;3.63;2.30;;;24.40;54.60;;;;;;5102614;28;20227;-54
2021/12/09 08:41:14;;;;;;;2.75;1.98;;;24.40;54.70;;;;;;5102425;28;20254;-53
2021/12/09 08:43:45;;;;;;;2.80;2.42;;;24.40;54.70;;;;;;5098604;28;20201;-53
2021/12/09 08:46:17;;;;;;;3.08;2.00;;;24.30;55.20;;;;;;5095793;28;20255;-55
2021/12/09 08:48:48;;;;;;;3.50;2.20;;;24.40;54.60;;;;;;5102633;28;20302;-54
2021/12/09 08:51:19;;;;;;;3.17;2.28;;;24.30;54.60;;;;;;5101535;28;20197;-51
2021/12/09 08:53:50;;;;;;;2.83;2.20;;;24.30;54.60;;;;;;5098097;28;20254;-54
2021/12/09 08:56:22;;;;;;;3.10;2.20;;;24.30;54.60;;;;;;5099334;28;20202;-51
2021/12/09 08:58:53;;;;;;;3.08;2.17;;;24.30;54.60;;;;;;5105108;28;20294;-57
2021/12/09 09:01:23;;;;;;;3.88;2.45;;;24.20;55.20;;;;;;5105087;28;20873;-52
2021/12/09 09:03:54;;;;;;;2.20;2.00;;;24.20;54.60;;;;;;5100086;28;20665;-57
2021/12/09 09:06:25;;;;;;;3.60;2.20;;;24.20;54.60;;;;;;5099712;28;20959;-51
2021/12/09 09:08:57;;;;;;;3.65;2.45;;;24.20;54.60;;;;;;5104997;28;20259;-57
2021/12/09 09:11:30;;;;;;;2.63;2.08;;;24.20;54.60;;;;;;5102994;22;20222;-48
2021/12/09 09:14:01;;;;;;;3.78;2.40;;;24.20;54.70;;;;;;5077754;28;20202;-49
2021/12/09 09:16:32;;;;;;;4.45;2.15;;;24.20;54.70;;;;;;5077218;28;20245;-45
2021/12/09 09:19:02;;;;;;;2.05;1.77;;;24.10;54.60;;;;;;5082326;28;20627;-54
2021/12/09 09:21:34;;;;;;;3.83;2.22;;;24.10;54.70;;;;;;5081274;28;20251;-45
2021/12/09 09:24:05;;;;;;;3.10;2.00;;;24.10;54.70;;;;;;5078489;28;20277;-47
2021/12/09 09:26:38;;;;;;;3.45;2.38;;;24.10;54.70;;;;;;5077698;28;20195;-47
2021/12/09 09:29:10;;;;;;;2.92;2.00;;;24.10;54.70;;;;;;5084124;28;20217;-45
2021/12/09 09:31:42;;;;;;;2.08;1.85;;;24.10;54.70;;;;;;5083152;28;20198;-53
2021/12/09 09:34:13;;;;;;;4.43;2.28;;;24.10;54.70;;;;;;5077612;28;20256;-52
2021/12/09 09:36:45;;;;;;;3.42;2.35;;;24.00;54.60;;;;;;5080688;28;20194;-50
2021/12/09 09:39:22;;;;;;;2.65;2.28;;;24.00;54.60;;;;;;5082224;28;20761;-47
2021/12/09 09:42:01;;;;;;;2.28;1.92;;;24.00;54.80;;;;;;5082571;28;20201;-44
2021/12/09 09:44:44;;;;;;;2.05;1.83;;;24.00;54.60;;;;;;5082768;28;20689;-49
2021/12/09 09:47:16;;;;;;;2.22;2.03;;;24.00;54.60;;;;;;5082302;28;20241;-46
2021/12/09 09:49:46;;;;;;;2.75;2.20;;;24.00;54.60;;;;;;5084002;28;20878;-47
2021/12/09 09:52:17;;;;;;;2.30;1.95;;;23.90;54.60;;;;;;5078781;28;20195;-52
2021/12/09 09:54:49;;;;;;;4.78;2.28;;;23.90;54.80;;;;;;5062651;28;20273;-50
2021/12/09 09:57:21;;;;;;;2.30;2.10;;;23.90;54.60;;;;;;5064225;28;20218;-50
2021/12/09 09:59:52;;;;;;;2.53;2.00;;;23.90;54.60;;;;;;5059556;28;20269;-48
2021/12/09 10:02:23;;;;;;;2.25;2.05;;;23.80;54.70;;;;;;5058271;28;20252;-48
2021/12/09 10:05:01;;;;;;;2.10;1.70;;;23.80;54.70;;;;;;5060524;28;20198;-51
2021/12/09 10:07:33;;;;;;;2.75;2.10;;;23.80;54.70;;;;;;5062600;28;20219;-51
2021/12/09 10:10:07;;;;;;;2.83;1.88;;;23.80;54.70;;;;;;5059120;28;20206;-50
2021/12/09 10:12:57;;;;;;;2.40;1.88;;;23.80;54.80;;;;;;5060748;28;20250;-54
2021/12/09 10:15:46;;;;;;;2.85;2.10;;;23.80;54.80;;;;;;5060061;28;20982;-49
2021/12/09 10:18:33;;;;;;;3.40;1.92;;;23.80;54.80;;;;;;5061082;28;20283;-50
2021/12/09 10:21:05;;;;;;;2.28;2.08;;;23.70;54.70;;;;;;5056161;28;20605;-52
2021/12/09 10:23:38;;;;;;;2.42;2.00;;;23.70;54.60;;;;;;5058045;28;20667;-50
2021/12/09 10:26:27;;;;;;;2.20;2.00;;;23.70;54.70;;;;;;5059835;28;20200;-49
2021/12/09 10:29:08;;;;;;;3.33;2.08;;;23.70;54.70;;;;;;5060843;28;20278;-45
2021/12/09 10:31:45;;;;;;;2.17;1.90;;;23.60;54.70;;;;;;5059076;28;20607;-46
2021/12/09 10:34:27;;;;;;;2.45;2.00;;;23.60;54.70;;;;;;5059405;28;20905;-49
2021/12/09 10:37:03;;;;;;;3.63;1.92;;;23.60;54.70;;;;;;5061571;28;20227;-52
2021/12/09 10:39:40;;;;;;;2.33;2.13;;;23.60;54.70;;;;;;5060638;28;20684;-53
2021/12/09 10:42:14;;;;;;;2.47;2.08;;;23.60;54.80;;;;;;5058633;28;20198;-48
2021/12/09 10:44:50;;;;;;;2.58;2.05;;;23.50;54.70;;;;;;5057019;28;20194;-55
2021/12/09 10:47:35;;;;;;;2.20;2.00;;;23.50;54.80;;;;;;5059115;28;20215;-51
2021/12/09 10:50:12;;;;;;;3.08;2.00;;;23.50;54.80;;;;;;5060371;28;20199;-54
2021/12/09 10:52:50;;;;;;;3.00;2.03;;;23.50;54.80;;;;;;5061087;28;20207;-45
2021/12/09 10:55:24;;;;;;;2.30;1.77;;;23.50;54.90;;;;;;5059580;28;20199;-45
2021/12/09 10:58:03;;;;;;;3.40;2.10;;;23.40;54.90;;;;;;5058990;28;20895;-47
2021/12/09 11:00:39;;;;;;;1.90;1.65;;;23.40;54.90;;;;;;5059475;28;20300;-49
2021/12/09 11:03:19;;;;;;;2.58;2.30;;;23.40;54.90;;;;;;5058482;28;20199;-47
2021/12/09 11:05:54;;;;;;;2.72;1.98;;;23.40;54.90;;;;;;5058867;28;20194;-48
2021/12/09 11:08:34;;;;;;;2.90;2.00;;;23.40;54.90;;;;;;5058075;28;20246;-49
2021/12/09 11:13:53;;;;;;;2.67;2.38;;;23.30;54.90;;;;;;5816685;22;20241;-57
2021/12/09 11:16:42;;;;;;;2.78;2.10;;;23.30;54.90;;;;;;5070207;28;20586;-57
2021/12/09 11:19:19;;;;;;;2.28;1.95;;;23.30;55.00;;;;;;5060112;28;20225;-54
2021/12/09 11:21:55;;;;;;;2.40;2.17;;;23.30;55.00;;;;;;5069580;28;20198;-47
2021/12/09 11:24:30;;;;;;;2.63;2.13;;;23.30;55.00;;;;;;5069977;28;20205;-48
2021/12/09 11:27:03;;;;;;;2.15;1.90;;;23.30;55.10;;;;;;5070331;28;20221;-50
2021/12/09 11:29:36;;;;;;;3.17;2.20;;;23.30;55.10;;;;;;5070965;28;20658;-56
2021/12/09 11:32:14;;;;;;;2.55;2.20;;;23.20;55.00;;;;;;5070723;28;20279;-51
2021/12/09 11:34:51;;;;;;;2.30;1.92;;;23.20;55.00;;;;;;5069346;28;20273;-55
2021/12/09 11:37:40;;;;;;;2.95;1.98;;;23.20;55.00;;;;;;5057711;28;20222;-53
2021/12/09 11:40:26;;;;;;;2.38;2.17;;;23.20;55.10;;;;;;5049735;28;20229;-53
2021/12/09 11:43:00;;;;;;;1.95;1.80;;;23.20;55.10;;;;;;5049851;28;20203;-53
2021/12/09 11:45:34;;;;;;;3.13;1.95;;;23.20;55.10;;;;;;5050248;28;20214;-52
2021/12/09 11:48:08;;;;;;;2.30;2.10;;;23.10;55.10;;;;;;5050337;28;20269;-54
2021/12/09 11:50:40;;;;;;;2.22;1.95;;;23.10;55.20;;;;;;5069442;28;20190;-53
2021/12/09 11:53:12;;;;;;;2.70;2.00;;;23.10;55.20;;;;;;5069951;28;20713;-53
2021/12/09 11:55:48;;;;;;;2.35;2.10;;;23.10;55.20;;;;;;5069969;28;20210;-53
2021/12/09 11:58:23;;;;;;;2.28;1.75;;;23.10;55.30;;;;;;5069982;28;20301;-56
2021/12/09 12:12:45;;;;;;;2.25;2.00;;;23.00;55.20;;;;;;5102376;22;20855;-46
2021/12/09 12:15:51;;;;;;;2.40;2.20;;;23.00;55.20;;;;;;5089665;28;20229;-50
2021/12/09 12:18:40;;;;;;;2.83;2.20;;;23.00;55.30;;;;;;5089320;28;20217;-49
2021/12/09 12:24:43;;;;;;;2.28;2.08;;;22.90;55.20;;;;;;5089309;28;20190;-47
2021/12/09 12:28:04;;;;;;;2.58;2.22;;;22.90;55.20;;;;;;5090033;28;20218;-48
2021/12/09 12:31:08;;;;;;;3.30;2.63;;;22.90;55.30;;;;;;5089747;28;20198;-47
2021/12/09 12:34:36;;;;;;;3.47;2.22;;;22.90;55.30;;;;;;5089271;28;20208;-50
2021/12/09 12:37:20;;;;;;;3.38;2.20;;;22.80;55.20;;;;;;5079257;28;20438;-56
2021/12/09 12:40:08;;;;;;;2.40;2.10;;;22.80;55.20;;;;;;5068627;28;20627;-50
2021/12/09 12:42:48;;;;;;;2.47;2.15;;;22.80;55.30;;;;;;5069605;28;20203;-50
2021/12/09 12:45:45;;;;;;;2.63;2.08;;;22.80;55.30;;;;;;5069415;28;20303;-48
2021/12/09 12:48:55;;;;;;;2.40;2.20;;;22.80;55.40;;;;;;5069051;28;20290;-52
2021/12/09 12:51:30;;;;;;;3.08;2.42;;;22.80;55.40;;;;;;5049556;28;20203;-53
2021/12/09 12:54:07;;;;;;;2.60;2.10;;;22.70;55.30;;;;;;5049489;28;20698;-49
2021/12/09 12:56:45;;;;;;;2.67;2.03;;;22.70;55.30;;;;;;5049288;28;20195;-46
2021/12/09 12:59:23;;;;;;;2.67;2.47;;;22.70;55.30;;;;;;5049281;28;20229;-51
2021/12/09 13:02:44;;;;;;;2.22;1.98;;;22.60;55.30;;;;;;5049080;28;20201;-48
2021/12/09 13:05:27;;;;;;;2.40;2.20;;;22.70;55.50;;;;;;5078543;28;20202;-50
2021/12/09 13:11:17;;;;;;;2.63;2.17;;;22.60;55.40;;;;;;5069764;28;20207;-46
2021/12/09 13:13:58;;;;;;;3.22;2.28;;;22.60;55.40;;;;;;5069493;28;20199;-47
2021/12/09 13:16:40;;;;;;;2.80;2.22;;;22.60;55.40;;;;;;5069254;28;20563;-48
2021/12/09 13:19:34;;;;;;;2.42;2.10;;;22.60;55.50;;;;;;5077274;28;20194;-46
2021/12/09 13:22:08;;;;;;;2.58;2.13;;;22.60;55.50;;;;;;5093765;28;20190;-50
2021/12/09 13:24:49;;;;;;;2.30;2.13;;;22.50;55.40;;;;;;5093110;28;20722;-50
2021/12/09 13:27:38;;;;;;;2.30;2.08;;;22.60;55.50;;;;;;5092703;28;20214;-47
2021/12/09 13:30:43;;;;;;;2.60;2.30;;;22.50;55.50;;;;;;5093097;28;20289;-51
2021/12/09 13:39:16;;;;;;;3.05;2.50;;;22.50;55.60;;;;;;5064077;28;20195;-50
2021/12/09 13:55:51;;;;;;;2.95;2.65;;;22.40;55.70;;;;;;5071981;28;20232;-48
2021/12/09 13:58:22;;;;;;;2.53;2.33;;;22.40;55.70;;;;;;5072138;28;20646;-56
2021/12/09 14:00:55;;;;;;;2.60;2.40;;;22.40;55.70;;;;;;5071579;28;20245;-54
2021/12/09 14:03:27;;;;;;;2.33;2.13;;;22.30;55.70;;;;;;5071954;28;20217;-57
2021/12/09 14:06:01;;;;;;;2.63;2.42;;;22.40;55.70;;;;;;5089338;28;20198;-53
2021/12/09 14:08:37;;;;;;;4.55;2.38;;;22.40;55.80;;;;;;5072719;28;20697;-57